sensor_id;sensor_type;location;lat;lon;timestamp;P1;durP1;ratioP1;P2;durP2;ratioP2
26690;SDS011;14307;51.718;8.938;2023-03-12T00:01:20;18.67;;;14.55;;
26690;SDS011;14307;51.718;8.938;2023-03-12T00:03:49;15.57;;;13.93;;
26690;SDS011;14307;51.718;8.938;2023-03-12T00:06:17;18.17;;;13.68;;
26690;SDS011;14307;51.718;8.938;2023-03-12T00:08:45;18.20;;;14.63;;
26690;SDS011;14307;51.718;8.938;2023-03-12T00:11:12;20.00;;;15.23;;
26690;SDS011;14307;51.718;8.938;2023-03-12T00:13:47;17.70;;;15.82;;
26690;SDS011;14307;51.718;8.938;2023-03-12T00:16:18;21.75;;;16.40;;
26690;SDS011;14307;51.718;8.938;2023-03-12T00:18:49;17.88;;;15.88;;
26690;SDS011;14307;51.718;8.938;2023-03-12T00:21:17;18.83;;;15.38;;
26690;SDS011;14307;51.718;8.938;2023-03-12T00:27:03;19.38;;;16.77;;
26690;SDS011;14307;51.718;8.938;2023-03-12T00:29:29;17.58;;;15.73;;
26690;SDS011;14307;51.718;8.938;2023-03-12T00:31:56;23.38;;;17.20;;
26690;SDS011;14307;51.718;8.938;2023-03-12T00:34:23;18.52;;;16.58;;
26690;SDS011;14307;51.718;8.938;2023-03-12T00:39:31;17.98;;;16.23;;
26690;SDS011;14307;51.718;8.938;2023-03-12T00:41:58;24.48;;;16.05;;
26690;SDS011;14307;51.718;8.938;2023-03-12T00:44:24;18.35;;;15.65;;
26690;SDS011;14307;51.718;8.938;2023-03-12T00:46:51;17.92;;;16.20;;
26690;SDS011;14307;51.718;8.938;2023-03-12T00:49:18;19.23;;;16.02;;
26690;SDS011;14307;51.718;8.938;2023-03-12T00:51:45;18.60;;;16.20;;
26690;SDS011;14307;51.718;8.938;2023-03-12T00:54:11;17.77;;;15.48;;
26690;SDS011;14307;51.718;8.938;2023-03-12T00:56:38;20.27;;;15.77;;
26690;SDS011;14307;51.718;8.938;2023-03-12T00:59:05;18.35;;;15.68;;
26690;SDS011;14307;51.718;8.938;2023-03-12T01:01:34;17.88;;;15.98;;
26690;SDS011;14307;51.718;8.938;2023-03-12T01:04:01;17.85;;;16.08;;
26690;SDS011;14307;51.718;8.938;2023-03-12T01:06:28;17.65;;;16.00;;
26690;SDS011;14307;51.718;8.938;2023-03-12T01:08:55;18.95;;;16.92;;
26690;SDS011;14307;51.718;8.938;2023-03-12T01:11:23;18.90;;;17.00;;
26690;SDS011;14307;51.718;8.938;2023-03-12T01:13:49;21.75;;;16.60;;
26690;SDS011;14307;51.718;8.938;2023-03-12T01:16:16;19.42;;;17.58;;
26690;SDS011;14307;51.718;8.938;2023-03-12T01:18:43;19.50;;;17.35;;
26690;SDS011;14307;51.718;8.938;2023-03-12T01:21:10;19.92;;;18.05;;
26690;SDS011;14307;51.718;8.938;2023-03-12T01:23:37;19.60;;;17.50;;
26690;SDS011;14307;51.718;8.938;2023-03-12T01:26:03;26.10;;;18.52;;
26690;SDS011;14307;51.718;8.938;2023-03-12T01:28:30;20.38;;;18.33;;
26690;SDS011;14307;51.718;8.938;2023-03-12T01:30:57;25.45;;;19.75;;
26690;SDS011;14307;51.718;8.938;2023-03-12T01:33:23;22.20;;;19.17;;
26690;SDS011;14307;51.718;8.938;2023-03-12T01:35:50;21.08;;;18.80;;
26690;SDS011;14307;51.718;8.938;2023-03-12T01:38:17;21.75;;;19.48;;
26690;SDS011;14307;51.718;8.938;2023-03-12T01:40:45;20.80;;;18.65;;
26690;SDS011;14307;51.718;8.938;2023-03-12T01:43:21;20.35;;;18.25;;
26690;SDS011;14307;51.718;8.938;2023-03-12T01:46:03;21.50;;;19.30;;
26690;SDS011;14307;51.718;8.938;2023-03-12T01:49:04;20.65;;;18.55;;
26690;SDS011;14307;51.718;8.938;2023-03-12T01:51:39;20.80;;;18.58;;
26690;SDS011;14307;51.718;8.938;2023-03-12T01:54:17;22.40;;;19.77;;
26690;SDS011;14307;51.718;8.938;2023-03-12T01:56:51;20.85;;;18.80;;
26690;SDS011;14307;51.718;8.938;2023-03-12T01:59:20;23.40;;;17.05;;
26690;SDS011;14307;51.718;8.938;2023-03-12T02:01:51;27.33;;;18.17;;
26690;SDS011;14307;51.718;8.938;2023-03-12T02:04:19;17.05;;;15.23;;
26690;SDS011;14307;51.718;8.938;2023-03-12T02:06:50;19.63;;;16.55;;
26690;SDS011;14307;51.718;8.938;2023-03-12T02:09:33;19.40;;;15.15;;
26690;SDS011;14307;51.718;8.938;2023-03-12T02:12:01;21.70;;;16.25;;
26690;SDS011;14307;51.718;8.938;2023-03-12T02:14:30;18.92;;;15.73;;
26690;SDS011;14307;51.718;8.938;2023-03-12T02:16:57;17.02;;;15.32;;
26690;SDS011;14307;51.718;8.938;2023-03-12T02:19:33;20.23;;;16.55;;
26690;SDS011;14307;51.718;8.938;2023-03-12T02:22:13;17.40;;;15.60;;
26690;SDS011;14307;51.718;8.938;2023-03-12T02:24:52;25.13;;;17.20;;
26690;SDS011;14307;51.718;8.938;2023-03-12T02:27:20;19.13;;;16.25;;
26690;SDS011;14307;51.718;8.938;2023-03-12T02:29:48;21.02;;;17.40;;
26690;SDS011;14307;51.718;8.938;2023-03-12T02:32:23;22.75;;;19.30;;
26690;SDS011;14307;51.718;8.938;2023-03-12T02:34:53;20.67;;;18.52;;
26690;SDS011;14307;51.718;8.938;2023-03-12T02:37:22;23.80;;;17.00;;
26690;SDS011;14307;51.718;8.938;2023-03-12T02:39:50;18.52;;;16.67;;
26690;SDS011;14307;51.718;8.938;2023-03-12T02:42:22;26.63;;;17.23;;
26690;SDS011;14307;51.718;8.938;2023-03-12T02:44:50;22.45;;;17.38;;
26690;SDS011;14307;51.718;8.938;2023-03-12T02:47:16;22.88;;;17.90;;
26690;SDS011;14307;51.718;8.938;2023-03-12T02:49:43;20.90;;;18.67;;
26690;SDS011;14307;51.718;8.938;2023-03-12T02:52:12;21.08;;;18.20;;
26690;SDS011;14307;51.718;8.938;2023-03-12T02:54:39;20.35;;;18.02;;
26690;SDS011;14307;51.718;8.938;2023-03-12T02:57:07;21.98;;;19.63;;
26690;SDS011;14307;51.718;8.938;2023-03-12T02:59:33;28.00;;;19.65;;
26690;SDS011;14307;51.718;8.938;2023-03-12T03:02:02;24.42;;;20.60;;
26690;SDS011;14307;51.718;8.938;2023-03-12T03:04:30;24.55;;;19.60;;
26690;SDS011;14307;51.718;8.938;2023-03-12T03:06:57;20.48;;;18.42;;
26690;SDS011;14307;51.718;8.938;2023-03-12T03:09:23;23.15;;;19.52;;
26690;SDS011;14307;51.718;8.938;2023-03-12T03:11:51;21.83;;;19.73;;
26690;SDS011;14307;51.718;8.938;2023-03-12T03:14:19;28.77;;;19.85;;
26690;SDS011;14307;51.718;8.938;2023-03-12T03:16:48;24.95;;;18.92;;
26690;SDS011;14307;51.718;8.938;2023-03-12T03:19:15;19.83;;;17.90;;
26690;SDS011;14307;51.718;8.938;2023-03-12T03:21:42;38.83;;;19.10;;
26690;SDS011;14307;51.718;8.938;2023-03-12T03:24:09;21.75;;;19.10;;
26690;SDS011;14307;51.718;8.938;2023-03-12T03:26:36;24.05;;;18.08;;
26690;SDS011;14307;51.718;8.938;2023-03-12T03:29:02;21.30;;;19.02;;
26690;SDS011;14307;51.718;8.938;2023-03-12T03:31:30;20.67;;;18.05;;
26690;SDS011;14307;51.718;8.938;2023-03-12T03:33:57;20.77;;;18.13;;
26690;SDS011;14307;51.718;8.938;2023-03-12T03:36:24;19.65;;;17.75;;
26690;SDS011;14307;51.718;8.938;2023-03-12T03:39:00;19.58;;;17.67;;
26690;SDS011;14307;51.718;8.938;2023-03-12T03:41:28;20.25;;;18.35;;
26690;SDS011;14307;51.718;8.938;2023-03-12T03:43:56;23.25;;;18.75;;
26690;SDS011;14307;51.718;8.938;2023-03-12T03:46:24;20.33;;;18.20;;
26690;SDS011;14307;51.718;8.938;2023-03-12T03:48:56;21.50;;;19.08;;
26690;SDS011;14307;51.718;8.938;2023-03-12T03:51:23;20.27;;;18.20;;
26690;SDS011;14307;51.718;8.938;2023-03-12T03:53:54;22.27;;;18.90;;
26690;SDS011;14307;51.718;8.938;2023-03-12T03:56:22;20.45;;;18.33;;
26690;SDS011;14307;51.718;8.938;2023-03-12T03:58:49;19.73;;;17.88;;
26690;SDS011;14307;51.718;8.938;2023-03-12T04:01:18;38.00;;;23.80;;
26690;SDS011;14307;51.718;8.938;2023-03-12T04:03:46;19.52;;;17.67;;
26690;SDS011;14307;51.718;8.938;2023-03-12T04:06:13;20.73;;;18.38;;
26690;SDS011;14307;51.718;8.938;2023-03-12T04:08:40;20.80;;;18.23;;
26690;SDS011;14307;51.718;8.938;2023-03-12T04:11:14;19.98;;;18.33;;
26690;SDS011;14307;51.718;8.938;2023-03-12T04:13:43;20.35;;;18.45;;
26690;SDS011;14307;51.718;8.938;2023-03-12T04:16:13;20.55;;;18.50;;
26690;SDS011;14307;51.718;8.938;2023-03-12T04:18:41;21.20;;;17.05;;
26690;SDS011;14307;51.718;8.938;2023-03-12T04:21:10;20.25;;;18.08;;
26690;SDS011;14307;51.718;8.938;2023-03-12T04:23:39;20.50;;;18.27;;
26690;SDS011;14307;51.718;8.938;2023-03-12T04:26:07;19.10;;;17.38;;
26690;SDS011;14307;51.718;8.938;2023-03-12T04:28:35;19.15;;;17.38;;
26690;SDS011;14307;51.718;8.938;2023-03-12T04:31:04;18.10;;;16.77;;
26690;SDS011;14307;51.718;8.938;2023-03-12T04:33:37;20.67;;;17.73;;
26690;SDS011;14307;51.718;8.938;2023-03-12T04:36:06;20.63;;;18.77;;
26690;SDS011;14307;51.718;8.938;2023-03-12T04:38:35;22.67;;;20.17;;
26690;SDS011;14307;51.718;8.938;2023-03-12T04:41:07;20.08;;;17.92;;
26690;SDS011;14307;51.718;8.938;2023-03-12T04:43:42;21.05;;;19.23;;
26690;SDS011;14307;51.718;8.938;2023-03-12T04:46:09;20.20;;;18.35;;
26690;SDS011;14307;51.718;8.938;2023-03-12T04:48:43;19.63;;;17.77;;
26690;SDS011;14307;51.718;8.938;2023-03-12T04:51:11;20.17;;;18.48;;
26690;SDS011;14307;51.718;8.938;2023-03-12T04:53:38;18.98;;;17.35;;
26690;SDS011;14307;51.718;8.938;2023-03-12T04:56:07;19.05;;;17.52;;
26690;SDS011;14307;51.718;8.938;2023-03-12T04:58:35;20.30;;;18.15;;
26690;SDS011;14307;51.718;8.938;2023-03-12T05:01:02;21.30;;;19.13;;
26690;SDS011;14307;51.718;8.938;2023-03-12T05:03:30;20.08;;;18.58;;
26690;SDS011;14307;51.718;8.938;2023-03-12T05:05:58;20.15;;;18.55;;
26690;SDS011;14307;51.718;8.938;2023-03-12T05:08:25;19.58;;;17.83;;
26690;SDS011;14307;51.718;8.938;2023-03-12T05:10:51;19.90;;;18.05;;
26690;SDS011;14307;51.718;8.938;2023-03-12T05:13:20;20.70;;;19.05;;
26690;SDS011;14307;51.718;8.938;2023-03-12T05:15:50;19.17;;;17.63;;
26690;SDS011;14307;51.718;8.938;2023-03-12T05:18:18;21.08;;;18.95;;
26690;SDS011;14307;51.718;8.938;2023-03-12T05:20:46;21.23;;;19.42;;
26690;SDS011;14307;51.718;8.938;2023-03-12T05:23:23;20.48;;;18.67;;
26690;SDS011;14307;51.718;8.938;2023-03-12T05:25:49;20.38;;;18.67;;
26690;SDS011;14307;51.718;8.938;2023-03-12T05:28:16;20.20;;;19.00;;
26690;SDS011;14307;51.718;8.938;2023-03-12T05:30:43;22.25;;;20.00;;
26690;SDS011;14307;51.718;8.938;2023-03-12T05:33:09;20.67;;;19.25;;
26690;SDS011;14307;51.718;8.938;2023-03-12T05:35:36;21.65;;;19.73;;
26690;SDS011;14307;51.718;8.938;2023-03-12T05:38:03;20.42;;;18.80;;
26690;SDS011;14307;51.718;8.938;2023-03-12T05:40:30;22.17;;;20.25;;
26690;SDS011;14307;51.718;8.938;2023-03-12T05:42:58;21.75;;;20.10;;
26690;SDS011;14307;51.718;8.938;2023-03-12T05:45:25;23.33;;;21.20;;
26690;SDS011;14307;51.718;8.938;2023-03-12T05:47:54;22.48;;;20.73;;
26690;SDS011;14307;51.718;8.938;2023-03-12T05:50:21;21.90;;;20.10;;
26690;SDS011;14307;51.718;8.938;2023-03-12T05:52:48;21.60;;;19.73;;
26690;SDS011;14307;51.718;8.938;2023-03-12T05:55:14;22.77;;;20.60;;
26690;SDS011;14307;51.718;8.938;2023-03-12T05:57:41;20.67;;;19.05;;
26690;SDS011;14307;51.718;8.938;2023-03-12T06:00:09;21.17;;;19.83;;
26690;SDS011;14307;51.718;8.938;2023-03-12T06:02:40;25.08;;;23.20;;
26690;SDS011;14307;51.718;8.938;2023-03-12T06:05:09;23.67;;;21.85;;
26690;SDS011;14307;51.718;8.938;2023-03-12T06:07:37;26.23;;;24.50;;
26690;SDS011;14307;51.718;8.938;2023-03-12T06:10:04;26.90;;;24.77;;
26690;SDS011;14307;51.718;8.938;2023-03-12T06:12:31;25.48;;;23.77;;
26690;SDS011;14307;51.718;8.938;2023-03-12T06:14:59;26.98;;;24.95;;
26690;SDS011;14307;51.718;8.938;2023-03-12T06:17:27;25.85;;;24.02;;
26690;SDS011;14307;51.718;8.938;2023-03-12T06:19:54;25.60;;;23.90;;
26690;SDS011;14307;51.718;8.938;2023-03-12T06:22:21;25.33;;;23.48;;
26690;SDS011;14307;51.718;8.938;2023-03-12T06:24:48;24.50;;;22.85;;
26690;SDS011;14307;51.718;8.938;2023-03-12T06:27:16;25.35;;;23.55;;
26690;SDS011;14307;51.718;8.938;2023-03-12T06:29:43;25.52;;;23.63;;
26690;SDS011;14307;51.718;8.938;2023-03-12T06:32:12;24.48;;;22.92;;
26690;SDS011;14307;51.718;8.938;2023-03-12T06:34:39;26.00;;;23.63;;
26690;SDS011;14307;51.718;8.938;2023-03-12T06:37:06;25.30;;;23.30;;
26690;SDS011;14307;51.718;8.938;2023-03-12T06:39:33;25.13;;;23.00;;
26690;SDS011;14307;51.718;8.938;2023-03-12T06:41:59;24.25;;;22.70;;
26690;SDS011;14307;51.718;8.938;2023-03-12T06:44:26;25.70;;;23.70;;
26690;SDS011;14307;51.718;8.938;2023-03-12T06:46:53;25.38;;;23.23;;
26690;SDS011;14307;51.718;8.938;2023-03-12T06:49:20;24.45;;;22.60;;
26690;SDS011;14307;51.718;8.938;2023-03-12T06:51:47;25.15;;;23.02;;
26690;SDS011;14307;51.718;8.938;2023-03-12T06:54:14;22.90;;;21.60;;
26690;SDS011;14307;51.718;8.938;2023-03-12T06:56:41;25.08;;;23.45;;
26690;SDS011;14307;51.718;8.938;2023-03-12T06:59:07;25.27;;;23.40;;
26690;SDS011;14307;51.718;8.938;2023-03-12T07:01:34;24.52;;;22.90;;
26690;SDS011;14307;51.718;8.938;2023-03-12T07:04:01;24.67;;;22.90;;
26690;SDS011;14307;51.718;8.938;2023-03-12T07:06:28;26.73;;;24.63;;
26690;SDS011;14307;51.718;8.938;2023-03-12T07:08:55;25.42;;;23.30;;
26690;SDS011;14307;51.718;8.938;2023-03-12T07:11:21;26.10;;;23.73;;
26690;SDS011;14307;51.718;8.938;2023-03-12T07:13:48;25.65;;;23.25;;
26690;SDS011;14307;51.718;8.938;2023-03-12T07:16:15;24.80;;;22.77;;
26690;SDS011;14307;51.718;8.938;2023-03-12T07:18:41;25.83;;;24.23;;
26690;SDS011;14307;51.718;8.938;2023-03-12T07:21:08;30.63;;;27.83;;
26690;SDS011;14307;51.718;8.938;2023-03-12T07:23:35;27.45;;;25.20;;
26690;SDS011;14307;51.718;8.938;2023-03-12T07:26:02;27.83;;;25.92;;
26690;SDS011;14307;51.718;8.938;2023-03-12T07:28:30;27.00;;;24.67;;
26690;SDS011;14307;51.718;8.938;2023-03-12T07:31:01;26.23;;;24.40;;
26690;SDS011;14307;51.718;8.938;2023-03-12T07:33:29;28.60;;;26.38;;
26690;SDS011;14307;51.718;8.938;2023-03-12T07:35:56;27.27;;;25.60;;
26690;SDS011;14307;51.718;8.938;2023-03-12T07:38:23;27.83;;;25.52;;
26690;SDS011;14307;51.718;8.938;2023-03-12T07:40:50;26.80;;;24.88;;
26690;SDS011;14307;51.718;8.938;2023-03-12T07:43:19;28.65;;;26.70;;
26690;SDS011;14307;51.718;8.938;2023-03-12T07:45:49;26.42;;;24.77;;
26690;SDS011;14307;51.718;8.938;2023-03-12T07:48:16;26.90;;;25.02;;
26690;SDS011;14307;51.718;8.938;2023-03-12T07:50:44;27.52;;;25.85;;
26690;SDS011;14307;51.718;8.938;2023-03-12T07:53:12;27.33;;;25.38;;
26690;SDS011;14307;51.718;8.938;2023-03-12T07:55:39;28.55;;;26.23;;
26690;SDS011;14307;51.718;8.938;2023-03-12T07:58:05;29.80;;;27.70;;
26690;SDS011;14307;51.718;8.938;2023-03-12T08:00:32;29.00;;;27.20;;
26690;SDS011;14307;51.718;8.938;2023-03-12T08:02:59;27.85;;;26.05;;
26690;SDS011;14307;51.718;8.938;2023-03-12T08:05:26;27.92;;;26.13;;
26690;SDS011;14307;51.718;8.938;2023-03-12T08:07:53;38.63;;;36.10;;
26690;SDS011;14307;51.718;8.938;2023-03-12T08:10:20;35.13;;;32.88;;
26690;SDS011;14307;51.718;8.938;2023-03-12T08:12:47;34.58;;;32.60;;
26690;SDS011;14307;51.718;8.938;2023-03-12T08:15:15;35.60;;;33.20;;
26690;SDS011;14307;51.718;8.938;2023-03-12T08:17:41;34.42;;;32.63;;
26690;SDS011;14307;51.718;8.938;2023-03-12T08:20:08;37.17;;;35.05;;
26690;SDS011;14307;51.718;8.938;2023-03-12T08:22:36;36.20;;;34.20;;
26690;SDS011;14307;51.718;8.938;2023-03-12T08:25:04;33.90;;;31.58;;
26690;SDS011;14307;51.718;8.938;2023-03-12T08:27:31;33.33;;;31.33;;
26690;SDS011;14307;51.718;8.938;2023-03-12T08:29:59;36.80;;;34.00;;
26690;SDS011;14307;51.718;8.938;2023-03-12T08:32:25;35.88;;;33.65;;
26690;SDS011;14307;51.718;8.938;2023-03-12T08:34:52;33.25;;;31.25;;
26690;SDS011;14307;51.718;8.938;2023-03-12T08:37:19;31.02;;;28.80;;
26690;SDS011;14307;51.718;8.938;2023-03-12T08:39:45;32.75;;;30.40;;
26690;SDS011;14307;51.718;8.938;2023-03-12T08:42:12;31.23;;;29.05;;
26690;SDS011;14307;51.718;8.938;2023-03-12T08:44:39;34.85;;;32.85;;
26690;SDS011;14307;51.718;8.938;2023-03-12T08:47:05;37.22;;;34.55;;
26690;SDS011;14307;51.718;8.938;2023-03-12T08:49:32;35.70;;;32.80;;
26690;SDS011;14307;51.718;8.938;2023-03-12T08:51:59;30.60;;;28.10;;
26690;SDS011;14307;51.718;8.938;2023-03-12T08:54:25;32.85;;;30.63;;
26690;SDS011;14307;51.718;8.938;2023-03-12T08:56:52;32.60;;;30.45;;
26690;SDS011;14307;51.718;8.938;2023-03-12T08:59:19;34.10;;;31.73;;
26690;SDS011;14307;51.718;8.938;2023-03-12T09:01:47;35.90;;;32.83;;
26690;SDS011;14307;51.718;8.938;2023-03-12T09:04:14;35.63;;;33.53;;
26690;SDS011;14307;51.718;8.938;2023-03-12T09:06:41;32.88;;;30.85;;
26690;SDS011;14307;51.718;8.938;2023-03-12T09:09:08;32.40;;;30.17;;
26690;SDS011;14307;51.718;8.938;2023-03-12T09:11:36;35.42;;;32.95;;
26690;SDS011;14307;51.718;8.938;2023-03-12T09:14:04;34.33;;;31.60;;
26690;SDS011;14307;51.718;8.938;2023-03-12T09:16:51;37.42;;;34.63;;
26690;SDS011;14307;51.718;8.938;2023-03-12T09:19:18;37.25;;;34.10;;
26690;SDS011;14307;51.718;8.938;2023-03-12T09:21:45;30.60;;;28.52;;
26690;SDS011;14307;51.718;8.938;2023-03-12T09:24:12;29.35;;;27.48;;
26690;SDS011;14307;51.718;8.938;2023-03-12T09:26:38;25.40;;;23.60;;
26690;SDS011;14307;51.718;8.938;2023-03-12T09:29:05;25.75;;;22.83;;
26690;SDS011;14307;51.718;8.938;2023-03-12T09:31:32;20.90;;;19.27;;
26690;SDS011;14307;51.718;8.938;2023-03-12T09:33:59;20.30;;;18.58;;
26690;SDS011;14307;51.718;8.938;2023-03-12T09:36:26;20.60;;;18.52;;
26690;SDS011;14307;51.718;8.938;2023-03-12T09:38:53;89.38;;;51.88;;
26690;SDS011;14307;51.718;8.938;2023-03-12T09:41:24;24.83;;;21.20;;
26690;SDS011;14307;51.718;8.938;2023-03-12T09:51:59;24.08;;;19.13;;
26690;SDS011;14307;51.718;8.938;2023-03-12T09:54:37;30.75;;;17.02;;
26690;SDS011;14307;51.718;8.938;2023-03-12T09:57:18;27.30;;;19.38;;
26690;SDS011;14307;51.718;8.938;2023-03-12T09:59:50;26.88;;;17.25;;
26690;SDS011;14307;51.718;8.938;2023-03-12T10:02:25;18.40;;;16.48;;
26690;SDS011;14307;51.718;8.938;2023-03-12T10:04:55;23.70;;;18.33;;
26690;SDS011;14307;51.718;8.938;2023-03-12T10:07:39;18.95;;;17.05;;
26690;SDS011;14307;51.718;8.938;2023-03-12T10:10:15;23.65;;;18.02;;
26690;SDS011;14307;51.718;8.938;2023-03-12T10:17:50;23.15;;;16.85;;
26690;SDS011;14307;51.718;8.938;2023-03-12T10:31:24;34.83;;;22.63;;
26690;SDS011;14307;51.718;8.938;2023-03-12T10:33:57;20.67;;;17.00;;
26690;SDS011;14307;51.718;8.938;2023-03-12T10:36:33;29.95;;;21.65;;
26690;SDS011;14307;51.718;8.938;2023-03-12T10:39:09;31.60;;;21.02;;
26690;SDS011;14307;51.718;8.938;2023-03-12T10:41:45;24.83;;;18.55;;
26690;SDS011;14307;51.718;8.938;2023-03-12T10:44:15;31.27;;;21.92;;
26690;SDS011;14307;51.718;8.938;2023-03-12T10:49:35;25.35;;;19.23;;
26690;SDS011;14307;51.718;8.938;2023-03-12T10:57:00;27.17;;;21.52;;
26690;SDS011;14307;51.718;8.938;2023-03-12T10:59:28;32.63;;;23.35;;
26690;SDS011;14307;51.718;8.938;2023-03-12T11:02:22;30.30;;;21.10;;
26690;SDS011;14307;51.718;8.938;2023-03-12T11:04:54;37.45;;;26.17;;
26690;SDS011;14307;51.718;8.938;2023-03-12T11:07:31;29.92;;;24.27;;
26690;SDS011;14307;51.718;8.938;2023-03-12T11:10:12;34.25;;;25.58;;
26690;SDS011;14307;51.718;8.938;2023-03-12T11:13:01;36.22;;;25.85;;
26690;SDS011;14307;51.718;8.938;2023-03-12T11:15:47;39.90;;;27.52;;
26690;SDS011;14307;51.718;8.938;2023-03-12T11:20:55;43.22;;;27.83;;
26690;SDS011;14307;51.718;8.938;2023-03-12T11:23:35;36.67;;;25.52;;
26690;SDS011;14307;51.718;8.938;2023-03-12T11:26:10;29.30;;;21.90;;
26690;SDS011;14307;51.718;8.938;2023-03-12T11:28:47;33.70;;;22.08;;
26690;SDS011;14307;51.718;8.938;2023-03-12T11:31:19;38.13;;;23.65;;
26690;SDS011;14307;51.718;8.938;2023-03-12T11:33:50;25.80;;;19.50;;
26690;SDS011;14307;51.718;8.938;2023-03-12T11:39:30;85.45;;;47.70;;
26690;SDS011;14307;51.718;8.938;2023-03-12T11:45:09;44.97;;;30.65;;
26690;SDS011;14307;51.718;8.938;2023-03-12T11:47:44;45.20;;;33.78;;
26690;SDS011;14307;51.718;8.938;2023-03-12T11:53:25;49.60;;;34.65;;
26690;SDS011;14307;51.718;8.938;2023-03-12T11:58:50;49.03;;;34.03;;
26690;SDS011;14307;51.718;8.938;2023-03-12T12:01:29;36.33;;;26.33;;
26690;SDS011;14307;51.718;8.938;2023-03-12T12:07:29;55.53;;;36.70;;
26690;SDS011;14307;51.718;8.938;2023-03-12T12:10:23;46.38;;;32.70;;
26690;SDS011;14307;51.718;8.938;2023-03-12T12:27:08;103.85;;;62.40;;
26690;SDS011;14307;51.718;8.938;2023-03-12T12:35:04;65.57;;;41.25;;
26690;SDS011;14307;51.718;8.938;2023-03-12T12:38:05;55.22;;;35.35;;
26690;SDS011;14307;51.718;8.938;2023-03-12T12:40:45;84.88;;;47.22;;
26690;SDS011;14307;51.718;8.938;2023-03-12T12:46:14;87.95;;;46.35;;
26690;SDS011;14307;51.718;8.938;2023-03-12T12:51:19;86.55;;;52.10;;
26690;SDS011;14307;51.718;8.938;2023-03-12T12:59:20;67.28;;;41.22;;
26690;SDS011;14307;51.718;8.938;2023-03-12T13:01:56;64.45;;;38.67;;
26690;SDS011;14307;51.718;8.938;2023-03-12T13:04:26;72.45;;;41.35;;
26690;SDS011;14307;51.718;8.938;2023-03-12T13:09:46;53.13;;;33.70;;
26690;SDS011;14307;51.718;8.938;2023-03-12T13:14:50;51.47;;;34.35;;
26690;SDS011;14307;51.718;8.938;2023-03-12T13:20:12;47.42;;;29.55;;
26690;SDS011;14307;51.718;8.938;2023-03-12T13:22:56;50.78;;;36.47;;
26690;SDS011;14307;51.718;8.938;2023-03-12T13:25:25;43.03;;;27.85;;
26690;SDS011;14307;51.718;8.938;2023-03-12T13:31:32;64.32;;;37.28;;
26690;SDS011;14307;51.718;8.938;2023-03-12T13:33:57;56.58;;;31.75;;
26690;SDS011;14307;51.718;8.938;2023-03-12T13:36:45;37.63;;;22.73;;
26690;SDS011;14307;51.718;8.938;2023-03-12T13:57:55;35.28;;;15.48;;
26690;SDS011;14307;51.718;8.938;2023-03-12T14:00:31;31.98;;;18.00;;
26690;SDS011;14307;51.718;8.938;2023-03-12T14:14:26;27.77;;;16.92;;
26690;SDS011;14307;51.718;8.938;2023-03-12T14:17:19;23.77;;;14.27;;
26690;SDS011;14307;51.718;8.938;2023-03-12T14:19:50;31.63;;;16.80;;
26690;SDS011;14307;51.718;8.938;2023-03-12T14:22:57;28.83;;;15.05;;
26690;SDS011;14307;51.718;8.938;2023-03-12T14:25:32;37.85;;;18.90;;
26690;SDS011;14307;51.718;8.938;2023-03-12T14:28:02;31.60;;;16.42;;
26690;SDS011;14307;51.718;8.938;2023-03-12T14:30:40;32.35;;;15.55;;
26690;SDS011;14307;51.718;8.938;2023-03-12T14:33:25;31.48;;;16.52;;
26690;SDS011;14307;51.718;8.938;2023-03-12T14:36:18;26.50;;;14.48;;
26690;SDS011;14307;51.718;8.938;2023-03-12T14:38:46;26.50;;;13.82;;
26690;SDS011;14307;51.718;8.938;2023-03-12T14:41:19;23.75;;;13.63;;
26690;SDS011;14307;51.718;8.938;2023-03-12T14:43:52;21.75;;;12.23;;
26690;SDS011;14307;51.718;8.938;2023-03-12T14:46:21;23.70;;;12.68;;
26690;SDS011;14307;51.718;8.938;2023-03-12T14:48:49;23.77;;;12.38;;
26690;SDS011;14307;51.718;8.938;2023-03-12T14:51:24;18.10;;;11.48;;
26690;SDS011;14307;51.718;8.938;2023-03-12T14:53:53;20.23;;;12.45;;
26690;SDS011;14307;51.718;8.938;2023-03-12T14:58:50;22.73;;;12.15;;
26690;SDS011;14307;51.718;8.938;2023-03-12T15:01:18;23.70;;;13.35;;
26690;SDS011;14307;51.718;8.938;2023-03-12T15:03:58;27.70;;;14.52;;
26690;SDS011;14307;51.718;8.938;2023-03-12T15:06:30;30.45;;;14.52;;
26690;SDS011;14307;51.718;8.938;2023-03-12T15:09:03;26.17;;;12.85;;
26690;SDS011;14307;51.718;8.938;2023-03-12T15:11:32;26.48;;;14.23;;
26690;SDS011;14307;51.718;8.938;2023-03-12T15:14:02;29.88;;;15.25;;
26690;SDS011;14307;51.718;8.938;2023-03-12T15:16:32;25.42;;;13.50;;
26690;SDS011;14307;51.718;8.938;2023-03-12T15:19:00;26.92;;;10.45;;
26690;SDS011;14307;51.718;8.938;2023-03-12T15:21:30;29.92;;;12.25;;
26690;SDS011;14307;51.718;8.938;2023-03-12T15:23:59;31.00;;;12.52;;
26690;SDS011;14307;51.718;8.938;2023-03-12T15:26:27;26.58;;;13.50;;
26690;SDS011;14307;51.718;8.938;2023-03-12T15:29:00;23.83;;;12.85;;
26690;SDS011;14307;51.718;8.938;2023-03-12T15:31:44;22.90;;;10.77;;
26690;SDS011;14307;51.718;8.938;2023-03-12T15:34:26;22.67;;;11.40;;
26690;SDS011;14307;51.718;8.938;2023-03-12T15:37:01;20.83;;;10.77;;
26690;SDS011;14307;51.718;8.938;2023-03-12T15:39:43;27.80;;;12.73;;
26690;SDS011;14307;51.718;8.938;2023-03-12T15:42:14;25.38;;;13.00;;
26690;SDS011;14307;51.718;8.938;2023-03-12T15:44:44;34.60;;;13.75;;
26690;SDS011;14307;51.718;8.938;2023-03-12T15:47:17;24.65;;;11.35;;
26690;SDS011;14307;51.718;8.938;2023-03-12T15:49:48;29.13;;;14.20;;
26690;SDS011;14307;51.718;8.938;2023-03-12T15:54:58;45.00;;;17.15;;
26690;SDS011;14307;51.718;8.938;2023-03-12T15:57:26;35.33;;;16.83;;
26690;SDS011;14307;51.718;8.938;2023-03-12T16:00:07;35.70;;;14.93;;
26690;SDS011;14307;51.718;8.938;2023-03-12T16:02:58;42.28;;;16.60;;
26690;SDS011;14307;51.718;8.938;2023-03-12T16:05:28;50.00;;;17.55;;
26690;SDS011;14307;51.718;8.938;2023-03-12T16:08:20;40.95;;;16.20;;
26690;SDS011;14307;51.718;8.938;2023-03-12T16:10:54;47.58;;;16.90;;
26690;SDS011;14307;51.718;8.938;2023-03-12T16:13:22;30.08;;;15.27;;
26690;SDS011;14307;51.718;8.938;2023-03-12T16:15:57;40.08;;;15.65;;
26690;SDS011;14307;51.718;8.938;2023-03-12T16:18:24;37.15;;;17.92;;
26690;SDS011;14307;51.718;8.938;2023-03-12T16:20:52;37.58;;;16.65;;
26690;SDS011;14307;51.718;8.938;2023-03-12T16:23:18;43.38;;;17.20;;
26690;SDS011;14307;51.718;8.938;2023-03-12T16:25:49;40.65;;;18.80;;
26690;SDS011;14307;51.718;8.938;2023-03-12T16:28:18;34.90;;;14.80;;
26690;SDS011;14307;51.718;8.938;2023-03-12T16:30:45;44.53;;;19.30;;
26690;SDS011;14307;51.718;8.938;2023-03-12T16:33:13;36.28;;;13.75;;
26690;SDS011;14307;51.718;8.938;2023-03-12T16:35:42;41.38;;;16.85;;
26690;SDS011;14307;51.718;8.938;2023-03-12T16:38:09;35.97;;;14.60;;
26690;SDS011;14307;51.718;8.938;2023-03-12T16:40:37;31.65;;;14.65;;
26690;SDS011;14307;51.718;8.938;2023-03-12T16:43:10;42.17;;;12.65;;
26690;SDS011;14307;51.718;8.938;2023-03-12T16:45:41;31.25;;;13.00;;
26690;SDS011;14307;51.718;8.938;2023-03-12T16:48:12;39.08;;;13.40;;
26690;SDS011;14307;51.718;8.938;2023-03-12T16:50:45;37.50;;;13.18;;
26690;SDS011;14307;51.718;8.938;2023-03-12T16:53:15;25.48;;;11.80;;